Time;durP1;ratioP1;P1;durP2;ratioP2;P2;SDS_P1;SDS_P2;PMS_P1;PMS_P2;Temp;Humidity;BMP_temperature;BMP_pressure;BME280_temperature;BME280_humidity;BME280_pressure;Samples;Min_cycle;Max_cycle;Signal;HPM_P1;HPM_P2
2022/08/03 00:01:35;;;;;;;3.30;2.45;;;;;;;26.62;43.41;99512.03;5050915;28;20067;-42
2022/08/03 00:04:00;;;;;;;5.13;2.80;;;;;;;26.46;43.74;99520.59;5050462;28;20032;-43
2022/08/03 00:06:26;;;;;;;3.95;2.65;;;;;;;26.49;43.28;99509.06;5050633;28;20086;-43
2022/08/03 00:08:52;;;;;;;4.63;2.38;;;;;;;26.43;43.41;99512.25;5049278;28;20211;-42
2022/08/03 00:11:17;;;;;;;4.90;2.70;;;;;;;26.36;43.66;99507.25;5051093;28;20060;-42
2022/08/03 00:13:43;;;;;;;4.65;2.78;;;;;;;26.55;43.68;99511.66;5050566;28;20032;-42
2022/08/03 00:16:09;;;;;;;3.70;2.65;;;;;;;26.55;43.82;99506.19;5050106;28;20445;-43
2022/08/03 00:18:35;;;;;;;4.43;2.70;;;;;;;26.41;44.30;99506.31;5050364;28;20400;-42
2022/08/03 00:21:01;;;;;;;4.95;2.50;;;;;;;26.13;44.77;99501.84;5050388;28;20027;-43
2022/08/03 00:23:27;;;;;;;4.13;2.67;;;;;;;26.12;45.07;99505.69;5050366;28;20021;-42
2022/08/03 00:25:52;;;;;;;3.42;2.47;;;;;;;26.17;44.89;99501.22;5050360;28;20017;-44
2022/08/03 00:28:18;;;;;;;8.88;5.45;;;;;;;26.17;44.97;99515.66;5050342;28;20028;-44
2022/08/03 00:30:43;;;;;;;8.48;6.93;;;;;;;26.07;45.35;99507.75;5050093;28;20051;-43
2022/08/03 00:33:09;;;;;;;7.43;4.63;;;;;;;26.09;45.31;99503.59;5050009;28;20025;-43
2022/08/03 00:35:35;;;;;;;3.72;3.33;;;;;;;26.09;45.31;99502.78;5049912;28;20090;-44
2022/08/03 00:38:01;;;;;;;2.83;2.50;;;;;;;26.06;45.31;99506.91;5050414;28;20074;-43
2022/08/03 00:40:26;;;;;;;3.17;2.38;;;;;;;26.00;45.77;99508.19;5049893;28;20076;-42
2022/08/03 00:42:53;;;;;;;4.13;2.15;;;;;;;25.97;45.83;99511.53;5050574;28;20013;-42
2022/08/03 00:45:23;;;;;;;5.30;2.60;;;;;;;25.82;46.04;99514.63;5050090;28;20056;-43
2022/08/03 00:47:49;;;;;;;4.97;2.70;;;;;;;25.78;46.00;99519.06;5050071;28;20021;-43
2022/08/03 00:50:15;;;;;;;7.18;2.60;;;;;;;25.67;45.73;99516.59;5049856;28;20060;-44
2022/08/03 00:52:41;;;;;;;4.05;2.80;;;;;;;25.64;45.99;99513.69;5049969;28;20025;-44
2022/08/03 00:55:07;;;;;;;4.57;2.22;;;;;;;25.62;46.34;99515.91;5049882;28;20020;-43
2022/08/03 00:57:33;;;;;;;4.55;2.47;;;;;;;25.78;46.07;99513.63;5050491;28;20081;-44
2022/08/03 00:59:59;;;;;;;3.60;2.40;;;;;;;25.83;45.89;99513.50;5050084;28;20454;-43
2022/08/03 01:02:25;;;;;;;3.33;2.40;;;;;;;25.67;45.90;99515.81;5049668;28;20119;-44
2022/08/03 01:04:51;;;;;;;2.63;2.40;;;;;;;25.50;46.75;99516.47;5050301;28;20074;-42
2022/08/03 01:07:26;;;;;;;5.50;2.60;;;;;;;25.51;46.58;99515.34;5049938;28;20100;-43
2022/08/03 01:10:00;;;;;;;3.33;2.50;;;;;;;25.45;47.02;99511.13;5050002;28;20021;-43
2022/08/03 01:12:58;;;;;;;4.18;2.63;;;;;;;25.56;46.71;99515.22;5049398;28;20072;-44
2022/08/03 01:15:32;;;;;;;5.30;2.60;;;;;;;25.51;46.41;99518.91;5035244;28;20052;-42
2022/08/03 01:18:16;;;;;;;2.97;2.58;;;;;;;25.41;46.59;99515.59;5050268;28;20033;-42
2022/08/03 01:20:46;;;;;;;3.30;2.50;;;;;;;25.38;47.07;99518.91;5051778;28;20044;-42
2022/08/03 01:23:33;;;;;;;5.97;2.67;;;;;;;25.41;46.66;99508.22;5053466;28;20032;-42
2022/08/03 01:26:04;;;;;;;6.60;3.00;;;;;;;25.41;47.23;99518.31;5053862;28;20127;-42
2022/08/03 01:28:49;;;;;;;2.95;2.40;;;;;;;25.45;47.08;99520.09;5053492;28;20381;-42
2022/08/03 01:31:20;;;;;;;5.13;2.70;;;;;;;25.45;46.96;99519.31;5053400;28;20412;-43
2022/08/03 01:33:51;;;;;;;4.72;2.92;;;;;;;25.36;47.40;99522.78;5053260;28;20480;-43
2022/08/03 01:36:21;;;;;;;6.35;2.90;;;;;;;25.14;48.03;99514.53;5053354;28;20396;-42
2022/08/03 01:38:52;;;;;;;3.83;3.00;;;;;;;25.15;48.08;99524.28;5053211;28;20032;-42
2022/08/03 01:41:21;;;;;;;4.82;2.85;;;;;;;25.05;48.66;99521.81;5053780;28;20074;-43
2022/08/03 01:43:50;;;;;;;5.82;3.22;;;;;;;25.05;48.59;99513.63;5053086;28;20025;-43
2022/08/03 01:46:17;;;;;;;3.78;2.80;;;;;;;24.97;48.59;99499.63;5053609;28;20130;-42
2022/08/03 01:48:45;;;;;;;6.75;3.35;;;;;;;25.04;48.40;99514.75;5053170;28;20390;-42
2022/08/03 01:51:12;;;;;;;5.15;3.30;;;;;;;25.01;48.47;99513.44;5052872;28;20119;-42
2022/08/03 01:53:41;;;;;;;6.32;3.40;;;;;;;25.02;48.33;99515.06;5053032;28;20036;-43
2022/08/03 01:56:08;;;;;;;4.57;3.20;;;;;;;24.93;48.49;99509.50;5052828;28;20032;-42
2022/08/03 01:58:35;;;;;;;5.13;3.03;;;;;;;24.94;48.65;99521.19;5052949;28;20033;-42
2022/08/03 02:01:02;;;;;;;6.70;3.05;;;;;;;24.62;49.76;99524.84;5052907;28;20047;-42
2022/08/03 02:03:29;;;;;;;3.97;3.00;;;;;;;24.58;49.42;99522.75;5052950;28;20029;-42
2022/08/03 02:05:57;;;;;;;5.00;3.10;;;;;;;24.44;50.13;99530.03;5052778;28;20044;-43
2022/08/03 02:08:25;;;;;;;5.45;2.97;;;;;;;24.45;50.06;99512.63;5053033;28;20544;-43
2022/08/03 02:10:54;;;;;;;7.43;3.10;;;;;;;24.55;50.37;99519.81;5052946;28;20457;-42
2022/08/03 02:13:19;;;;;;;5.07;3.17;;;;;;;24.63;50.16;99527.28;5052643;28;20128;-43
2022/08/03 02:15:46;;;;;;;5.53;2.92;;;;;;;24.46;50.37;99510.72;5052440;28;20057;-43
2022/08/03 02:18:13;;;;;;;5.75;3.10;;;;;;;24.66;49.52;99525.88;5052812;28;20028;-43
2022/08/03 02:20:41;;;;;;;5.10;3.05;;;;;;;24.75;49.72;99519.44;5053097;28;20055;-43
2022/08/03 02:23:07;;;;;;;4.40;3.23;;;;;;;24.75;50.25;99524.03;5052487;28;20116;-42
2022/08/03 02:25:49;;;;;;;4.75;3.05;;;;;;;24.72;50.18;99528.19;5052995;28;20116;-42
2022/08/03 02:28:28;;;;;;;3.90;3.20;;;;;;;24.71;49.93;99517.59;5051029;28;20412;-43
2022/08/03 02:30:55;;;;;;;9.45;3.10;;;;;;;24.70;49.29;99519.53;5051966;28;20102;-43
2022/08/03 02:33:29;;;;;;;3.15;2.60;;;;;;;24.62;48.94;99506.63;5051568;28;20017;-40
2022/08/03 02:35:56;;;;;;;3.65;2.85;;;;;;;24.88;48.29;99522.44;5052361;28;20108;-42
2022/08/03 02:38:27;;;;;;;2.90;2.60;;;;;;;24.93;47.70;99525.84;5052120;28;20056;-42
2022/08/03 02:40:55;;;;;;;5.85;2.67;;;;;;;24.99;47.03;99532.00;5052273;28;20036;-42
2022/08/03 02:43:23;;;;;;;3.08;2.78;;;;;;;24.84;47.04;99522.22;5051862;28;20072;-41
2022/08/03 02:45:50;;;;;;;3.00;2.45;;;;;;;24.95;46.92;99528.28;5052447;28;20021;-42
2022/08/03 02:48:19;;;;;;;3.92;2.42;;;;;;;24.86;47.11;99530.09;5051803;28;20017;-42
2022/08/03 02:50:45;;;;;;;;;;;;;;;24.95;47.13;99534.50;5052690;28;20052;-42
2022/08/03 02:53:12;;;;;;;3.83;2.50;;;;;;;24.76;47.70;99531.09;5052022;28;19908;-42
2022/08/03 02:55:39;;;;;;;6.50;2.70;;;;;;;24.76;46.97;99536.53;5052427;28;20052;-42
2022/08/03 02:58:06;;;;;;;3.00;2.40;;;;;;;24.67;46.80;99532.91;5051920;28;20057;-42
2022/08/03 03:00:33;;;;;;;3.25;2.08;;;;;;;24.86;46.10;99538.25;5051694;28;20082;-42
2022/08/03 03:03:01;;;;;;;3.50;2.00;;;;;;;24.86;46.30;99543.69;5051785;28;20400;-42
2022/08/03 03:05:27;;;;;;;4.05;2.35;;;;;;;24.90;46.49;99547.41;5051740;28;20032;-41
2022/08/03 03:07:54;;;;;;;4.75;2.72;;;;;;;24.85;46.09;99533.94;5051714;28;20507;-42
2022/08/03 03:10:21;;;;;;;4.40;2.20;;;;;;;24.88;46.27;99539.53;5051726;28;20063;-42
2022/08/03 03:12:54;;;;;;;2.92;2.30;;;;;;;24.89;46.15;99543.91;5051315;28;20162;-43
2022/08/03 03:15:19;;;;;;;2.97;2.20;;;;;;;24.82;46.43;99546.22;5051687;28;20033;-40
2022/08/03 03:17:48;;;;;;;7.88;2.50;;;;;;;24.82;46.36;99543.50;5051344;28;20496;-43
2022/08/03 03:20:14;;;;;;;3.55;2.50;;;;;;;24.74;46.69;99542.28;5050973;28;20089;-41
2022/08/03 03:22:40;;;;;;;7.25;3.25;;;;;;;24.71;46.76;99545.63;5051101;28;20052;-42
2022/08/03 03:25:07;;;;;;;4.65;2.97;;;;;;;24.67;47.02;99550.03;5050987;28;20020;-42
2022/08/03 03:27:32;;;;;;;4.70;2.70;;;;;;;24.77;46.81;99559.94;5051095;28;20033;-43
2022/08/03 03:29:58;;;;;;;5.50;2.40;;;;;;;24.77;46.21;99565.38;5051317;28;20037;-42
2022/08/03 03:32:26;;;;;;;4.50;2.38;;;;;;;24.73;46.00;99558.91;5050938;28;20029;-42
2022/08/03 03:34:54;;;;;;;4.70;2.40;;;;;;;24.68;46.33;99570.72;5050895;28;20135;-43
2022/08/03 03:37:20;;;;;;;3.55;2.28;;;;;;;24.50;46.91;99568.84;5051182;28;20107;-41
2022/08/03 03:39:45;;;;;;;3.63;2.38;;;;;;;24.41;47.36;99566.03;5051511;28;20123;-42
2022/08/03 03:42:11;;;;;;;3.17;2.60;;;;;;;24.49;47.34;99564.53;5051143;28;20542;-43
2022/08/03 03:44:36;;;;;;;3.38;2.47;;;;;;;24.51;46.98;99565.03;5050657;28;20029;-41
2022/08/03 03:47:02;;;;;;;5.10;2.30;;;;;;;24.65;46.96;99574.00;5050973;28;20105;-42
2022/08/03 03:49:28;;;;;;;3.30;2.55;;;;;;;24.59;47.23;99577.94;5051004;28;20033;-42
2022/08/03 03:51:54;;;;;;;3.75;2.35;;;;;;;24.74;46.46;99579.56;5050020;28;20037;-42
2022/08/03 03:54:20;;;;;;;3.53;2.38;;;;;;;24.87;46.17;99578.78;5050933;28;20086;-42
2022/08/03 03:56:46;;;;;;;5.47;2.60;;;;;;;24.92;45.91;99580.56;5050875;28;20024;-42
2022/08/03 03:59:11;;;;;;;3.08;2.30;;;;;;;25.10;45.40;99578.88;5050893;28;20032;-43
2022/08/03 04:01:38;;;;;;;3.75;2.65;;;;;;;25.32;44.76;99578.97;5050643;28;20024;-43
2022/08/03 04:12:21;;;;;;;2.85;2.33;;;;;;;25.24;44.59;99598.72;5031232;28;20445;-37
2022/08/03 04:14:49;;;;;;;2.85;2.13;;;;;;;25.24;44.67;99587.84;5030694;28;20154;-37
2022/08/03 04:17:16;;;;;;;4.25;2.38;;;;;;;25.10;45.08;99589.75;5031212;28;20094;-36
2022/08/03 04:19:52;;;;;;;7.38;3.45;;;;;;;25.86;43.29;99600.09;5031436;28;20451;-36
2022/08/03 04:22:23;;;;;;;4.22;2.97;;;;;;;26.03;42.62;99591.28;5030442;28;20170;-36
2022/08/03 04:25:02;;;;;;;3.85;3.15;;;;;;;26.40;41.81;99598.22;5030737;28;20033;-36
2022/08/03 04:27:33;;;;;;;5.68;3.05;;;;;;;26.59;41.38;99598.03;5041816;28;20162;-37
2022/08/03 04:30:01;;;;;;;5.97;3.20;;;;;;;26.51;41.39;99599.56;5044226;28;20056;-37
2022/08/03 04:32:29;;;;;;;5.03;3.30;;;;;;;26.45;41.60;99619.94;5050087;28;20485;-38
2022/08/03 04:34:55;;;;;;;9.85;3.72;;;;;;;26.50;41.38;99614.34;5049387;28;20033;-36
2022/08/03 04:37:29;;;;;;;5.63;3.70;;;;;;;26.54;41.57;99614.53;5049481;28;20400;-36
2022/08/03 04:39:57;;;;;;;6.20;2.60;;;;;;;26.41;41.53;99618.94;5048770;28;20166;-36
2022/08/03 04:42:24;;;;;;;5.70;3.20;;;;;;;26.31;41.93;99624.63;5047743;28;20052;-36
2022/08/03 04:44:51;;;;;;;6.95;2.95;;;;;;;26.38;41.74;99610.56;5028889;28;20483;-36
2022/08/03 04:47:17;;;;;;;4.53;2.70;;;;;;;26.27;41.84;99621.75;5029217;28;20409;-37
2022/08/03 04:49:42;;;;;;;5.43;2.88;;;;;;;26.45;41.22;99622.66;5029518;28;20026;-36
2022/08/03 04:52:08;;;;;;;4.95;2.47;;;;;;;26.27;41.32;99620.94;5029458;28;20111;-36
2022/08/03 04:54:42;;;;;;;3.17;2.40;;;;;;;26.29;41.82;99622.25;5027867;28;20203;-36
2022/08/03 04:57:08;;;;;;;5.10;2.35;;;;;;;26.36;41.72;99624.53;5031609;28;20116;-36
2022/08/03 04:59:34;;;;;;;3.78;2.40;;;;;;;26.44;41.85;99618.31;5031909;28;20169;-36
2022/08/03 05:01:59;;;;;;;3.63;2.58;;;;;;;26.65;41.50;99626.00;5032185;28;20531;-35
2022/08/03 05:04:24;;;;;;;7.40;2.40;;;;;;;26.77;41.11;99620.75;5032184;28;20533;-37
2022/08/03 05:06:50;;;;;;;3.88;2.10;;;;;;;26.91;40.96;99623.38;5032416;28;20029;-36
2022/08/03 05:09:15;;;;;;;6.28;2.22;;;;;;;26.63;41.54;99622.78;5032873;28;20034;-35
2022/08/03 05:11:41;;;;;;;5.63;2.47;;;;;;;26.88;40.89;99624.00;5033146;28;20049;-36
2022/08/03 05:14:06;;;;;;;3.63;2.38;;;;;;;26.96;40.85;99628.72;5032405;28;20112;-36
2022/08/03 05:16:31;;;;;;;5.82;2.30;;;;;;;27.14;40.61;99626.81;5032804;28;20112;-36
2022/08/03 05:18:57;;;;;;;6.82;2.60;;;;;;;27.20;40.27;99632.94;5032656;28;20021;-36
2022/08/03 05:21:22;;;;;;;2.83;2.50;;;;;;;27.10;40.72;99634.03;5032827;28;20025;-36
2022/08/03 05:23:48;;;;;;;3.47;2.38;;;;;;;27.26;40.16;99634.44;5032533;28;20036;-36
2022/08/03 05:26:13;;;;;;;3.13;2.50;;;;;;;26.87;41.25;99638.78;5032445;28;20428;-37
2022/08/03 05:28:39;;;;;;;5.68;2.80;;;;;;;27.23;40.50;99637.78;5032655;28;20036;-36
2022/08/03 05:31:04;;;;;;;4.60;2.42;;;;;;;27.40;39.92;99647.97;5032563;28;20394;-36
2022/08/03 05:33:30;;;;;;;5.75;2.53;;;;;;;27.59;39.48;99651.22;5032484;28;20508;-36
2022/08/03 05:35:55;;;;;;;7.38;2.50;;;;;;;27.55;39.67;99649.44;5032478;28;20547;-36
2022/08/03 05:38:21;;;;;;;4.95;2.78;;;;;;;27.68;39.03;99643.84;5032403;28;20121;-36
2022/08/03 05:40:47;;;;;;;7.20;2.40;;;;;;;27.93;38.60;99655.16;5032238;28;20036;-36
2022/08/03 05:43:12;;;;;;;7.85;2.55;;;;;;;27.99;38.86;99655.78;5040325;28;20023;-36
2022/08/03 05:45:38;;;;;;;3.35;2.50;;;;;;;28.22;38.34;99661.88;5052175;28;20021;-36
2022/08/03 05:48:04;;;;;;;6.95;2.70;;;;;;;28.22;38.06;99657.22;5052055;28;20039;-36
2022/08/03 05:50:30;;;;;;;5.40;2.50;;;;;;;28.38;37.98;99657.50;5051883;28;20171;-36
2022/08/03 05:52:58;;;;;;;5.22;2.40;;;;;;;28.37;38.12;99650.44;5052530;28;20047;-36
2022/08/03 05:55:23;;;;;;;7.45;2.80;;;;;;;28.68;37.68;99657.63;5052396;28;20051;-37
2022/08/03 05:57:49;;;;;;;6.88;3.33;;;;;;;28.61;37.58;99658.13;5052010;28;20028;-36
2022/08/03 06:00:15;;;;;;;4.35;2.90;;;;;;;28.76;37.73;99670.47;5052056;28;20025;-36
2022/08/03 06:02:41;;;;;;;5.72;3.00;;;;;;;28.73;37.23;99660.19;5052243;28;20040;-37
2022/08/03 06:05:07;;;;;;;7.95;2.97;;;;;;;28.97;36.98;99664.28;5051898;28;20025;-37
2022/08/03 06:07:33;;;;;;;5.60;2.88;;;;;;;28.90;37.27;99659.34;5051619;28;20120;-37
2022/08/03 06:10:00;;;;;;;3.78;2.90;;;;;;;29.01;37.24;99665.22;5052243;28;20132;-36
2022/08/03 06:12:26;;;;;;;5.53;3.20;;;;;;;29.17;36.75;99658.09;5051259;28;20067;-37
2022/08/03 06:14:51;;;;;;;7.05;2.83;;;;;;;29.27;36.83;99665.16;5051688;28;20025;-37
2022/08/03 06:17:16;;;;;;;6.53;3.13;;;;;;;29.44;36.50;99669.72;5051687;28;20025;-37
2022/08/03 06:19:42;;;;;;;5.38;3.00;;;;;;;29.63;35.76;99672.81;5051651;28;20028;-35
2022/08/03 06:22:07;;;;;;;8.48;3.35;;;;;;;29.76;35.45;99678.41;5051737;28;20025;-35
2022/08/03 06:24:33;;;;;;;8.13;2.95;;;;;;;29.85;35.07;99678.34;5051796;28;20125;-36
2022/08/03 06:26:58;;;;;;;8.63;2.60;;;;;;;29.95;35.06;99672.44;5051958;28;20167;-36
2022/08/03 06:29:24;;;;;;;4.18;2.65;;;;;;;30.11;34.60;99673.44;5051420;28;20040;-36
2022/08/03 06:31:49;;;;;;;3.60;2.67;;;;;;;30.34;34.32;99681.34;5051549;28;20358;-37
2022/08/03 06:34:14;;;;;;;6.72;2.72;;;;;;;30.43;34.21;99682.06;5051149;28;20552;-36
2022/08/03 06:36:40;;;;;;;6.53;2.83;;;;;;;30.50;34.76;99676.00;5051482;28;20107;-37
2022/08/03 06:39:06;;;;;;;9.68;3.30;;;;;;;30.57;34.40;99673.50;5051643;28;20025;-37
2022/08/03 06:41:32;;;;;;;14.80;3.90;;;;;;;30.77;33.41;99677.34;5051749;28;20086;-37
2022/08/03 06:43:57;;;;;;;8.82;3.80;;;;;;;30.60;34.43;99686.56;5051115;28;20032;-37
2022/08/03 06:46:23;;;;;;;25.17;16.75;;;;;;;30.85;33.90;99686.63;5051318;28;20412;-37
2022/08/03 06:48:49;;;;;;;9.05;5.82;;;;;;;31.02;33.53;99680.16;5051114;28;20033;-35
2022/08/03 06:51:14;;;;;;;8.02;3.38;;;;;;;31.13;33.39;99687.59;5051288;28;20029;-35
2022/08/03 06:53:40;;;;;;;5.40;3.00;;;;;;;31.35;32.79;99677.28;5050634;28;20082;-37
2022/08/03 06:56:06;;;;;;;6.55;3.10;;;;;;;31.28;32.99;99677.88;5051305;28;20110;-37
2022/08/03 06:58:32;;;;;;;4.05;2.85;;;;;;;31.50;32.81;99678.56;5050800;28;20496;-37
2022/08/03 07:00:58;;;;;;;6.72;2.88;;;;;;;31.56;32.25;99677.16;5050946;28;20396;-36
2022/08/03 07:03:23;;;;;;;5.78;2.90;;;;;;;31.73;31.88;99676.91;5050957;28;20021;-37
2022/08/03 07:05:50;;;;;;;4.30;2.80;;;;;;;31.95;31.28;99672.03;5050812;28;20029;-37
2022/08/03 07:08:16;;;;;;;5.82;2.88;;;;;;;31.96;31.63;99668.13;5050702;28;20028;-37
2022/08/03 07:10:41;;;;;;;5.55;2.45;;;;;;;32.48;30.72;99675.50;5050281;28;20017;-38
2022/08/03 07:13:07;;;;;;;4.45;2.60;;;;;;;32.58;30.09;99679.72;5050385;28;20122;-36
2022/08/03 07:15:33;;;;;;;8.02;2.95;;;;;;;32.66;30.21;99678.75;5050169;28;20024;-36
2022/08/03 07:17:58;;;;;;;6.90;2.90;;;;;;;32.80;30.26;99677.50;5049574;28;20032;-36
2022/08/03 07:20:24;;;;;;;4.25;2.50;;;;;;;32.88;29.44;99665.50;5050282;28;20021;-36
2022/08/03 07:22:49;;;;;;;8.32;2.80;;;;;;;33.26;29.37;99678.69;5050542;28;20123;-36
2022/08/03 07:25:14;;;;;;;3.95;2.53;;;;;;;33.54;28.58;99677.72;5049898;28;20037;-36
2022/08/03 07:27:44;;;;;;;5.35;2.50;;;;;;;33.71;28.07;99676.56;5050396;28;20412;-37
2022/08/03 07:30:10;;;;;;;4.78;2.65;;;;;;;33.68;29.08;99680.84;5050152;28;20025;-36
2022/08/03 07:32:36;;;;;;;6.00;2.78;;;;;;;34.07;28.91;99672.56;5050077;28;20082;-37
2022/08/03 07:35:02;;;;;;;9.50;3.00;;;;;;;34.23;28.33;99683.59;5049945;28;20451;-37
2022/08/03 07:37:29;;;;;;;4.47;2.90;;;;;;;34.38;28.26;99670.81;5049990;28;20097;-38
2022/08/03 07:39:54;;;;;;;5.75;3.28;;;;;;;33.43;29.59;99685.75;5049954;28;20405;-37
2022/08/03 07:42:20;;;;;;;5.00;3.25;;;;;;;33.58;29.90;99683.31;5047516;28;20031;-37
2022/08/03 07:44:45;;;;;;;4.40;3.13;;;;;;;33.33;30.45;99683.56;5030111;28;20033;-37
2022/08/03 07:47:10;;;;;;;6.00;2.90;;;;;;;33.79;29.56;99694.84;5029988;28;20104;-37
2022/08/03 07:49:40;;;;;;;5.25;2.90;;;;;;;33.74;29.57;99692.41;5030312;28;20130;-36
2022/08/03 07:54:49;;;;;;;4.57;2.92;;;;;;;34.25;29.23;99694.22;5030040;28;20539;-37
2022/08/03 07:57:15;;;;;;;4.00;3.00;;;;;;;34.38;29.44;99692.91;5029682;28;20056;-36
2022/08/03 07:59:40;;;;;;;4.95;3.22;;;;;;;34.58;29.03;99690.13;5030294;28;20048;-37
2022/08/03 08:02:06;;;;;;;6.65;3.20;;;;;;;34.54;29.23;99695.59;5030191;28;20156;-37
2022/08/03 08:04:31;;;;;;;6.10;3.33;;;;;;;34.24;30.00;99687.94;5030266;28;20061;-37
2022/08/03 08:06:57;;;;;;;5.32;2.95;;;;;;;34.79;28.54;99696.06;5030597;28;20108;-44
2022/08/03 08:09:22;;;;;;;7.18;3.10;;;;;;;34.99;28.01;99696.78;5030243;28;20151;-45
2022/08/03 08:11:48;;;;;;;4.90;3.20;;;;;;;35.16;28.01;99694.69;5029847;28;20045;-44
2022/08/03 08:14:14;;;;;;;3.20;2.90;;;;;;;34.56;28.81;99698.78;5030415;28;20034;-44
2022/08/03 08:16:39;;;;;;;6.28;3.60;;;;;;;34.29;29.56;99700.66;5030199;28;20029;-43
2022/08/03 08:19:04;;;;;;;8.48;3.20;;;;;;;34.25;29.32;99703.34;5030280;28;20031;-37
2022/08/03 08:21:30;;;;;;;4.32;3.30;;;;;;;34.49;29.32;99695.09;5030415;28;20036;-37
2022/08/03 08:23:55;;;;;;;4.70;3.20;;;;;;;33.94;30.13;99698.72;5029596;28;20027;-44
2022/08/03 08:26:21;;;;;;;4.40;3.60;;;;;;;34.26;29.04;99702.16;5044710;28;20116;-44
2022/08/03 08:28:46;;;;;;;7.13;3.97;;;;;;;34.26;29.52;99696.63;5049015;28;20029;-43
2022/08/03 08:31:12;;;;;;;6.00;3.53;;;;;;;34.39;30.10;99688.22;5049230;28;20113;-43
2022/08/03 08:33:38;;;;;;;4.80;3.50;;;;;;;34.44;29.59;99687.88;5049671;28;20098;-42
2022/08/03 08:36:03;;;;;;;4.70;3.20;;;;;;;35.11;29.11;99681.16;5037971;28;20037;-42
2022/08/03 08:38:28;;;;;;;6.57;3.40;;;;;;;35.46;28.61;99680.94;5032236;28;20033;-43
2022/08/03 08:40:55;;;;;;;6.22;3.55;;;;;;;35.49;28.45;99680.22;5045915;28;20021;-43
2022/08/03 08:43:20;;;;;;;4.22;3.20;;;;;;;35.54;28.40;99670.78;5047972;28;20052;-43
2022/08/03 08:45:49;;;;;;;4.70;3.20;;;;;;;35.55;27.93;99672.38;5049808;28;20135;-43
2022/08/03 08:48:20;;;;;;;6.65;3.17;;;;;;;35.60;27.46;99680.34;5050064;28;20025;-45
2022/08/03 08:50:46;;;;;;;6.30;3.25;;;;;;;35.13;28.70;99684.34;5050033;28;20029;-44
2022/08/03 08:53:12;;;;;;;5.82;2.95;;;;;;;33.48;31.19;99693.75;5049633;28;20036;-44
2022/08/03 08:55:38;;;;;;;5.93;3.22;;;;;;;33.38;31.10;99688.81;5050135;28;20029;-42
2022/08/03 08:58:05;;;;;;;4.80;3.05;;;;;;;34.35;29.45;99684.56;5050181;28;20048;-44
2022/08/03 09:00:31;;;;;;;6.82;3.67;;;;;;;34.96;28.48;99669.09;5049966;28;20454;-46
2022/08/03 09:02:57;;;;;;;6.43;3.22;;;;;;;35.65;27.99;99684.78;5050018;28;20036;-43
2022/08/03 09:05:22;;;;;;;6.68;3.35;;;;;;;35.74;26.64;99680.56;5050113;28;20025;-44
2022/08/03 09:07:48;;;;;;;4.68;2.88;;;;;;;36.72;26.44;99683.28;5049973;28;20027;-43
2022/08/03 09:10:20;;;;;;;7.40;2.90;;;;;;;36.75;25.21;99684.50;5049563;28;20025;-43
2022/08/03 09:12:51;;;;;;;3.97;3.35;;;;;;;36.79;25.84;99679.78;5047928;28;20045;-42
2022/08/03 09:15:32;;;;;;;3.40;2.90;;;;;;;37.02;25.12;99674.03;5049056;28;20219;-42
2022/08/03 09:18:00;;;;;;;3.83;3.28;;;;;;;36.64;26.08;99676.06;5049448;28;20077;-43
2022/08/03 09:20:28;;;;;;;4.35;3.08;;;;;;;36.36;26.94;99673.78;5049098;28;20029;-44
2022/08/03 09:22:58;;;;;;;;;;;;;;;36.39;26.63;99673.06;5049446;28;20060;-43
2022/08/03 09:25:32;;;;;;;4.95;3.20;;;;;;;36.76;25.60;99670.25;5048526;28;19998;-43
2022/08/03 09:28:07;;;;;;;3.42;3.03;;;;;;;36.87;25.33;99664.00;5049878;28;20086;-43
2022/08/03 09:30:33;;;;;;;4.70;2.90;;;;;;;37.65;24.34;99668.53;5049595;28;20029;-42
2022/08/03 09:33:04;;;;;;;2.97;2.78;;;;;;;38.36;24.05;99670.00;5030196;28;20040;-43
2022/08/03 09:35:31;;;;;;;4.20;2.95;;;;;;;38.16;23.89;99663.97;5029456;28;20105;-45
2022/08/03 09:38:17;;;;;;;7.03;3.10;;;;;;;37.92;24.33;99653.16;5029648;28;20052;-46
2022/08/03 09:40:43;;;;;;;4.15;2.90;;;;;;;37.70;24.02;99662.59;5029701;28;20025;-43
2022/08/03 09:43:09;;;;;;;4.43;2.92;;;;;;;37.51;24.25;99667.25;5032763;28;20057;-44
2022/08/03 09:45:36;;;;;;;4.07;3.05;;;;;;;37.36;24.64;99660.03;5033037;28;20067;-44
2022/08/03 09:48:37;;;;;;;6.50;3.40;;;;;;;36.84;25.46;99648.91;5038112;28;20469;-42
2022/08/03 09:51:04;;;;;;;5.43;3.33;;;;;;;37.60;24.78;99652.22;5001456;28;20104;-43
2022/08/03 09:53:29;;;;;;;4.00;2.97;;;;;;;38.37;24.55;99652.16;5033379;28;20516;-44
2022/08/03 09:56:00;;;;;;;4.07;3.03;;;;;;;38.83;24.20;99641.06;5039938;28;20047;-43
2022/08/03 09:58:28;;;;;;;6.97;3.00;;;;;;;38.83;23.11;99629.94;5034863;28;20489;-45
2022/08/03 10:00:56;;;;;;;4.18;2.90;;;;;;;38.79;23.76;99633.94;5037932;28;20032;-42
2022/08/03 10:03:23;;;;;;;4.65;2.90;;;;;;;39.04;23.42;99626.38;5042964;28;20033;-43
2022/08/03 10:05:49;;;;;;;3.65;3.00;;;;;;;38.96;22.97;99624.78;5023239;28;20083;-42
2022/08/03 10:08:16;;;;;;;3.17;2.80;;;;;;;39.75;23.02;99629.38;5040705;28;20382;-44
2022/08/03 10:10:43;;;;;;;5.45;3.05;;;;;;;40.51;22.02;99626.97;5035826;28;20033;-46
2022/08/03 10:13:18;;;;;;;4.97;2.97;;;;;;;40.30;22.14;99622.31;5032812;28;20057;-44
2022/08/03 10:15:45;;;;;;;5.28;3.15;;;;;;;38.57;23.19;99627.56;5050751;28;20492;-46
2022/08/03 10:18:10;;;;;;;3.25;2.47;;;;;;;39.76;21.65;99617.06;5052135;28;20029;-45
2022/08/03 10:20:45;;;;;;;5.65;2.90;;;;;;;38.87;22.80;99616.84;5051510;28;20025;-45
2022/08/03 10:23:11;;;;;;;4.00;2.90;;;;;;;37.98;23.72;99627.81;5052148;28;20108;-43
2022/08/03 10:25:39;;;;;;;7.65;3.50;;;;;;;37.88;23.92;99629.38;5051661;28;20495;-44
2022/08/03 10:28:06;;;;;;;3.03;2.72;;;;;;;37.43;24.66;99628.75;5051076;28;20021;-44
2022/08/03 10:30:33;;;;;;;6.10;2.90;;;;;;;38.06;23.93;99627.44;5051393;28;20477;-43
2022/08/03 10:33:04;;;;;;;4.55;3.10;;;;;;;38.27;23.76;99621.19;5051617;28;20025;-45
2022/08/03 10:35:29;;;;;;;5.88;3.42;;;;;;;37.61;24.17;99626.09;5050994;28;20029;-46
2022/08/03 10:38:00;;;;;;;8.77;3.13;;;;;;;35.92;26.35;99619.09;5050231;28;20076;-45
2022/08/03 10:40:32;;;;;;;6.53;3.88;;;;;;;36.23;26.67;99608.78;5050495;28;20496;-46
2022/08/03 10:43:04;;;;;;;4.35;3.45;;;;;;;36.92;26.06;99613.75;5051108;28;20036;-43
2022/08/03 10:45:32;;;;;;;3.20;2.90;;;;;;;37.42;25.45;99614.09;5051617;28;20029;-45
2022/08/03 10:47:59;;;;;;;4.68;2.95;;;;;;;37.50;24.81;99612.13;5051836;28;20029;-47
2022/08/03 10:50:25;;;;;;;5.70;3.00;;;;;;;37.71;24.70;99612.25;5052018;28;20493;-43
2022/08/03 10:53:00;;;;;;;5.90;3.28;;;;;;;37.46;24.66;99608.56;5051184;28;20052;-43
2022/08/03 10:58:35;;;;;;;7.95;5.53;;;;;;;36.56;25.87;99605.94;5052430;28;20547;-44
2022/08/03 11:01:00;;;;;;;4.93;3.50;;;;;;;36.98;25.65;99603.91;5051448;28;20025;-43
2022/08/03 11:03:26;;;;;;;5.43;3.10;;;;;;;37.04;25.91;99607.91;5051843;28;20458;-44
2022/08/03 11:05:53;;;;;;;4.85;2.92;;;;;;;37.95;25.44;99594.09;5051779;28;20106;-46
2022/08/03 11:08:22;;;;;;;6.60;3.00;;;;;;;37.78;25.29;99594.84;5052174;28;20032;-44
2022/08/03 11:10:50;;;;;;;4.50;3.05;;;;;;;37.17;25.70;99592.56;5051950;28;20041;-46
2022/08/03 11:13:18;;;;;;;3.90;2.92;;;;;;;37.09;25.44;99581.75;5051080;28;20525;-46
2022/08/03 11:15:46;;;;;;;3.22;2.90;;;;;;;36.74;25.77;99581.16;5051252;28;20136;-42
2022/08/03 11:18:12;;;;;;;3.70;3.00;;;;;;;36.18;26.55;99569.19;5051293;28;20040;-45
2022/08/03 11:20:58;;;;;;;6.47;3.70;;;;;;;35.84;26.88;99573.16;5051546;28;20055;-45
2022/08/03 11:23:45;;;;;;;5.93;3.53;;;;;;;34.62;28.71;99570.22;5050858;28;20056;-43
2022/08/03 11:26:16;;;;;;;4.93;3.95;;;;;;;35.15;27.88;99572.25;5051385;28;20040;-47
2022/08/03 11:28:43;;;;;;;9.18;4.82;;;;;;;35.82;27.06;99566.00;5051295;28;20047;-42
2022/08/03 11:31:21;;;;;;;4.63;3.30;;;;;;;36.63;26.74;99566.38;5051418;28;20029;-44
2022/08/03 11:34:06;;;;;;;4.38;3.30;;;;;;;37.33;25.71;99563.69;5050921;28;20029;-43
2022/08/03 11:37:08;;;;;;;7.07;3.47;;;;;;;37.61;25.12;99559.50;5051704;28;20082;-43
2022/08/03 11:39:45;;;;;;;3.17;2.88;;;;;;;37.61;24.13;99554.72;5052037;28;20021;-45
2022/08/03 11:42:23;;;;;;;2.95;2.55;;;;;;;38.42;23.61;99551.72;5051137;28;20024;-43
2022/08/03 11:44:59;;;;;;;4.55;2.72;;;;;;;38.45;23.73;99553.69;5050451;28;20028;-44
2022/08/03 11:47:27;;;;;;;3.03;2.80;;;;;;;38.80;22.97;99550.09;5050994;28;20021;-44
2022/08/03 11:49:56;;;;;;;3.25;2.80;;;;;;;38.87;22.62;99550.09;5049565;28;20024;-46
2022/08/03 11:52:22;;;;;;;2.95;2.60;;;;;;;37.92;23.24;99549.66;5048969;28;20108;-47